sensor_id;sensor_type;location;lat;lon;timestamp;P1;durP1;ratioP1;P2;durP2;ratioP2
73102;SDS011;61294;65.988;29.172;2022-08-19T00:02:22;8.30;;;2.35;;
73102;SDS011;61294;65.988;29.172;2022-08-19T00:04:48;2.42;;;2.22;;
73102;SDS011;61294;65.988;29.172;2022-08-19T00:07:17;2.90;;;2.30;;
73102;SDS011;61294;65.988;29.172;2022-08-19T00:09:44;2.63;;;2.22;;
73102;SDS011;61294;65.988;29.172;2022-08-19T00:12:10;5.18;;;2.42;;
73102;SDS011;61294;65.988;29.172;2022-08-19T00:14:36;5.03;;;2.50;;
73102;SDS011;61294;65.988;29.172;2022-08-19T00:17:04;6.53;;;2.22;;
73102;SDS011;61294;65.988;29.172;2022-08-19T00:19:31;4.82;;;2.42;;
73102;SDS011;61294;65.988;29.172;2022-08-19T00:21:58;4.55;;;2.92;;
73102;SDS011;61294;65.988;29.172;2022-08-19T00:24:24;6.95;;;3.40;;
73102;SDS011;61294;65.988;29.172;2022-08-19T00:26:50;8.52;;;3.17;;
73102;SDS011;61294;65.988;29.172;2022-08-19T00:29:18;6.75;;;3.20;;
73102;SDS011;61294;65.988;29.172;2022-08-19T00:31:46;7.00;;;3.10;;
73102;SDS011;61294;65.988;29.172;2022-08-19T00:34:12;6.30;;;3.53;;
73102;SDS011;61294;65.988;29.172;2022-08-19T00:36:39;5.07;;;3.80;;
73102;SDS011;61294;65.988;29.172;2022-08-19T00:39:05;5.60;;;3.78;;
73102;SDS011;61294;65.988;29.172;2022-08-19T00:41:31;8.80;;;4.63;;
73102;SDS011;61294;65.988;29.172;2022-08-19T00:44:00;10.48;;;4.45;;
73102;SDS011;61294;65.988;29.172;2022-08-19T00:46:29;6.35;;;4.43;;
73102;SDS011;61294;65.988;29.172;2022-08-19T00:48:55;6.82;;;3.60;;
73102;SDS011;61294;65.988;29.172;2022-08-19T00:51:23;4.85;;;3.60;;
73102;SDS011;61294;65.988;29.172;2022-08-19T00:53:50;7.20;;;4.28;;
73102;SDS011;61294;65.988;29.172;2022-08-19T00:56:16;5.50;;;3.65;;
73102;SDS011;61294;65.988;29.172;2022-08-19T00:58:43;8.05;;;4.20;;
73102;SDS011;61294;65.988;29.172;2022-08-19T01:01:09;8.13;;;4.28;;
73102;SDS011;61294;65.988;29.172;2022-08-19T01:03:35;9.15;;;4.30;;
73102;SDS011;61294;65.988;29.172;2022-08-19T01:06:00;8.13;;;4.13;;
73102;SDS011;61294;65.988;29.172;2022-08-19T01:08:26;6.43;;;4.43;;
73102;SDS011;61294;65.988;29.172;2022-08-19T01:10:54;6.53;;;4.30;;
73102;SDS011;61294;65.988;29.172;2022-08-19T01:13:22;8.52;;;4.97;;
73102;SDS011;61294;65.988;29.172;2022-08-19T01:15:52;6.30;;;4.25;;
73102;SDS011;61294;65.988;29.172;2022-08-19T01:18:21;7.22;;;4.65;;
73102;SDS011;61294;65.988;29.172;2022-08-19T01:20:50;8.30;;;4.22;;
73102;SDS011;61294;65.988;29.172;2022-08-19T01:23:19;9.05;;;5.30;;
73102;SDS011;61294;65.988;29.172;2022-08-19T01:25:46;7.82;;;4.80;;
73102;SDS011;61294;65.988;29.172;2022-08-19T01:28:19;12.13;;;5.03;;
73102;SDS011;61294;65.988;29.172;2022-08-19T01:30:50;10.82;;;4.75;;
73102;SDS011;61294;65.988;29.172;2022-08-19T01:33:17;7.13;;;5.28;;
73102;SDS011;61294;65.988;29.172;2022-08-19T01:35:44;11.07;;;5.05;;
73102;SDS011;61294;65.988;29.172;2022-08-19T01:38:19;9.27;;;5.57;;
73102;SDS011;61294;65.988;29.172;2022-08-19T01:40:47;8.75;;;5.18;;
73102;SDS011;61294;65.988;29.172;2022-08-19T01:43:13;9.40;;;4.97;;
73102;SDS011;61294;65.988;29.172;2022-08-19T01:45:39;20.50;;;10.98;;
73102;SDS011;61294;65.988;29.172;2022-08-19T01:48:05;14.57;;;11.55;;
73102;SDS011;61294;65.988;29.172;2022-08-19T01:50:32;12.27;;;6.63;;
73102;SDS011;61294;65.988;29.172;2022-08-19T01:53:00;11.90;;;5.68;;
73102;SDS011;61294;65.988;29.172;2022-08-19T01:55:27;12.50;;;5.88;;
73102;SDS011;61294;65.988;29.172;2022-08-19T01:57:54;9.60;;;6.78;;
73102;SDS011;61294;65.988;29.172;2022-08-19T02:00:23;12.80;;;6.07;;
73102;SDS011;61294;65.988;29.172;2022-08-19T02:02:51;18.45;;;13.40;;
73102;SDS011;61294;65.988;29.172;2022-08-19T02:05:17;19.88;;;14.13;;
73102;SDS011;61294;65.988;29.172;2022-08-19T02:07:43;21.50;;;8.45;;
73102;SDS011;61294;65.988;29.172;2022-08-19T02:10:11;11.25;;;8.20;;
73102;SDS011;61294;65.988;29.172;2022-08-19T02:12:39;12.02;;;7.22;;
73102;SDS011;61294;65.988;29.172;2022-08-19T02:15:06;23.73;;;9.48;;
73102;SDS011;61294;65.988;29.172;2022-08-19T02:17:32;16.33;;;8.88;;
73102;SDS011;61294;65.988;29.172;2022-08-19T02:19:58;24.73;;;15.15;;
73102;SDS011;61294;65.988;29.172;2022-08-19T02:22:24;24.27;;;14.70;;
73102;SDS011;61294;65.988;29.172;2022-08-19T02:24:53;23.45;;;11.13;;
73102;SDS011;61294;65.988;29.172;2022-08-19T02:27:19;22.02;;;10.50;;
73102;SDS011;61294;65.988;29.172;2022-08-19T02:29:46;17.92;;;11.20;;
73102;SDS011;61294;65.988;29.172;2022-08-19T02:32:13;16.75;;;11.18;;
73102;SDS011;61294;65.988;29.172;2022-08-19T02:34:39;26.92;;;10.77;;
73102;SDS011;61294;65.988;29.172;2022-08-19T02:37:05;27.58;;;10.38;;
73102;SDS011;61294;65.988;29.172;2022-08-19T02:39:51;22.60;;;10.23;;
73102;SDS011;61294;65.988;29.172;2022-08-19T02:42:17;19.27;;;11.25;;
73102;SDS011;61294;65.988;29.172;2022-08-19T02:44:42;16.67;;;9.93;;
73102;SDS011;61294;65.988;29.172;2022-08-19T02:47:09;18.55;;;10.75;;
73102;SDS011;61294;65.988;29.172;2022-08-19T02:49:35;22.77;;;9.85;;
73102;SDS011;61294;65.988;29.172;2022-08-19T02:52:01;28.83;;;11.75;;
73102;SDS011;61294;65.988;29.172;2022-08-19T02:54:27;15.48;;;9.80;;
73102;SDS011;61294;65.988;29.172;2022-08-19T02:56:53;27.42;;;10.00;;
73102;SDS011;61294;65.988;29.172;2022-08-19T02:59:19;15.98;;;10.10;;
73102;SDS011;61294;65.988;29.172;2022-08-19T03:01:45;17.13;;;10.20;;
73102;SDS011;61294;65.988;29.172;2022-08-19T03:04:12;22.90;;;11.05;;
73102;SDS011;61294;65.988;29.172;2022-08-19T03:06:40;16.52;;;10.50;;
73102;SDS011;61294;65.988;29.172;2022-08-19T03:09:08;17.48;;;10.10;;
73102;SDS011;61294;65.988;29.172;2022-08-19T03:11:34;17.55;;;10.18;;
73102;SDS011;61294;65.988;29.172;2022-08-19T03:14:00;19.05;;;10.68;;
73102;SDS011;61294;65.988;29.172;2022-08-19T03:16:27;26.75;;;10.82;;
73102;SDS011;61294;65.988;29.172;2022-08-19T03:18:56;18.63;;;9.95;;
73102;SDS011;61294;65.988;29.172;2022-08-19T03:21:26;25.25;;;10.40;;
73102;SDS011;61294;65.988;29.172;2022-08-19T03:23:55;14.07;;;9.60;;
73102;SDS011;61294;65.988;29.172;2022-08-19T03:26:22;14.85;;;10.65;;
73102;SDS011;61294;65.988;29.172;2022-08-19T03:28:48;19.42;;;9.98;;
73102;SDS011;61294;65.988;29.172;2022-08-19T03:31:15;16.15;;;9.90;;
73102;SDS011;61294;65.988;29.172;2022-08-19T03:33:43;15.40;;;9.93;;
73102;SDS011;61294;65.988;29.172;2022-08-19T03:36:14;18.73;;;10.10;;
73102;SDS011;61294;65.988;29.172;2022-08-19T03:38:43;12.52;;;9.60;;
73102;SDS011;61294;65.988;29.172;2022-08-19T03:41:14;11.52;;;9.15;;
73102;SDS011;61294;65.988;29.172;2022-08-19T03:43:43;17.38;;;9.95;;
73102;SDS011;61294;65.988;29.172;2022-08-19T03:46:12;11.45;;;8.90;;
73102;SDS011;61294;65.988;29.172;2022-08-19T03:48:40;12.88;;;8.73;;
73102;SDS011;61294;65.988;29.172;2022-08-19T03:51:08;13.50;;;8.40;;
73102;SDS011;61294;65.988;29.172;2022-08-19T03:53:42;14.60;;;8.68;;
73102;SDS011;61294;65.988;29.172;2022-08-19T03:56:08;16.02;;;9.05;;
73102;SDS011;61294;65.988;29.172;2022-08-19T03:58:34;16.65;;;8.93;;
73102;SDS011;61294;65.988;29.172;2022-08-19T04:01:02;13.02;;;8.70;;
73102;SDS011;61294;65.988;29.172;2022-08-19T04:03:39;12.45;;;8.75;;
73102;SDS011;61294;65.988;29.172;2022-08-19T04:06:22;11.73;;;9.23;;
73102;SDS011;61294;65.988;29.172;2022-08-19T04:08:50;17.00;;;9.30;;
73102;SDS011;61294;65.988;29.172;2022-08-19T04:11:20;9.68;;;8.10;;
73102;SDS011;61294;65.988;29.172;2022-08-19T04:13:48;9.98;;;8.05;;
73102;SDS011;61294;65.988;29.172;2022-08-19T04:16:16;12.85;;;8.10;;
73102;SDS011;61294;65.988;29.172;2022-08-19T04:18:44;10.95;;;8.20;;
73102;SDS011;61294;65.988;29.172;2022-08-19T04:21:15;11.73;;;8.10;;
73102;SDS011;61294;65.988;29.172;2022-08-19T04:23:42;8.95;;;7.70;;
73102;SDS011;61294;65.988;29.172;2022-08-19T04:26:12;14.05;;;8.05;;
73102;SDS011;61294;65.988;29.172;2022-08-19T04:28:45;11.07;;;8.52;;
73102;SDS011;61294;65.988;29.172;2022-08-19T04:31:18;11.23;;;7.78;;
73102;SDS011;61294;65.988;29.172;2022-08-19T04:33:51;10.13;;;7.45;;
73102;SDS011;61294;65.988;29.172;2022-08-19T04:36:32;8.50;;;7.47;;
73102;SDS011;61294;65.988;29.172;2022-08-19T04:39:02;11.48;;;7.57;;
73102;SDS011;61294;65.988;29.172;2022-08-19T04:41:39;8.23;;;7.03;;
73102;SDS011;61294;65.988;29.172;2022-08-19T04:44:24;12.63;;;7.85;;
73102;SDS011;61294;65.988;29.172;2022-08-19T04:46:50;11.55;;;9.00;;
73102;SDS011;61294;65.988;29.172;2022-08-19T04:49:17;11.02;;;8.68;;
73102;SDS011;61294;65.988;29.172;2022-08-19T04:51:47;9.48;;;8.48;;
73102;SDS011;61294;65.988;29.172;2022-08-19T04:54:14;12.05;;;7.70;;
73102;SDS011;61294;65.988;29.172;2022-08-19T04:56:41;10.05;;;7.13;;
73102;SDS011;61294;65.988;29.172;2022-08-19T04:59:07;8.77;;;7.38;;
73102;SDS011;61294;65.988;29.172;2022-08-19T05:01:33;9.55;;;6.50;;
73102;SDS011;61294;65.988;29.172;2022-08-19T05:04:02;7.22;;;6.53;;
73102;SDS011;61294;65.988;29.172;2022-08-19T05:06:47;10.93;;;6.55;;
73102;SDS011;61294;65.988;29.172;2022-08-19T05:09:13;8.13;;;6.93;;
73102;SDS011;61294;65.988;29.172;2022-08-19T05:11:40;7.13;;;6.43;;
73102;SDS011;61294;65.988;29.172;2022-08-19T05:14:06;9.65;;;6.22;;
73102;SDS011;61294;65.988;29.172;2022-08-19T05:16:33;7.53;;;6.70;;
73102;SDS011;61294;65.988;29.172;2022-08-19T05:18:58;9.68;;;6.88;;
73102;SDS011;61294;65.988;29.172;2022-08-19T05:24:27;7.10;;;6.10;;
73102;SDS011;61294;65.988;29.172;2022-08-19T05:26:54;9.00;;;6.88;;
73102;SDS011;61294;65.988;29.172;2022-08-19T05:29:24;12.80;;;6.70;;
73102;SDS011;61294;65.988;29.172;2022-08-19T05:31:52;8.48;;;7.25;;
73102;SDS011;61294;65.988;29.172;2022-08-19T05:34:20;9.00;;;6.10;;
73102;SDS011;61294;65.988;29.172;2022-08-19T05:36:47;9.40;;;5.95;;
73102;SDS011;61294;65.988;29.172;2022-08-19T05:39:15;8.50;;;6.78;;
73102;SDS011;61294;65.988;29.172;2022-08-19T05:41:48;9.55;;;5.75;;
73102;SDS011;61294;65.988;29.172;2022-08-19T05:44:17;8.05;;;7.25;;
73102;SDS011;61294;65.988;29.172;2022-08-19T05:46:43;11.15;;;5.85;;
73102;SDS011;61294;65.988;29.172;2022-08-19T05:49:12;7.88;;;7.13;;
73102;SDS011;61294;65.988;29.172;2022-08-19T05:51:38;8.25;;;6.82;;
73102;SDS011;61294;65.988;29.172;2022-08-19T05:54:04;7.28;;;6.32;;
73102;SDS011;61294;65.988;29.172;2022-08-19T05:56:31;9.00;;;6.88;;
73102;SDS011;61294;65.988;29.172;2022-08-19T05:58:57;7.95;;;7.20;;
73102;SDS011;61294;65.988;29.172;2022-08-19T06:01:24;8.63;;;6.82;;
73102;SDS011;61294;65.988;29.172;2022-08-19T06:03:50;8.50;;;7.70;;
73102;SDS011;61294;65.988;29.172;2022-08-19T06:06:17;8.68;;;7.88;;
73102;SDS011;61294;65.988;29.172;2022-08-19T06:08:43;9.60;;;7.50;;
73102;SDS011;61294;65.988;29.172;2022-08-19T06:13:50;11.43;;;7.60;;
73102;SDS011;61294;65.988;29.172;2022-08-19T06:16:18;8.27;;;7.47;;
73102;SDS011;61294;65.988;29.172;2022-08-19T06:18:51;8.82;;;7.95;;
73102;SDS011;61294;65.988;29.172;2022-08-19T06:21:21;10.10;;;8.40;;
73102;SDS011;61294;65.988;29.172;2022-08-19T06:23:48;11.45;;;8.95;;
73102;SDS011;61294;65.988;29.172;2022-08-19T06:26:16;11.43;;;9.25;;
73102;SDS011;61294;65.988;29.172;2022-08-19T06:28:43;9.55;;;8.55;;
73102;SDS011;61294;65.988;29.172;2022-08-19T06:31:12;10.98;;;8.85;;
73102;SDS011;61294;65.988;29.172;2022-08-19T06:33:43;10.35;;;9.18;;
73102;SDS011;61294;65.988;29.172;2022-08-19T06:36:44;13.07;;;9.50;;
73102;SDS011;61294;65.988;29.172;2022-08-19T06:39:07;10.73;;;9.50;;
73102;SDS011;61294;65.988;29.172;2022-08-19T06:41:36;10.77;;;9.70;;
73102;SDS011;61294;65.988;29.172;2022-08-19T06:44:04;12.45;;;9.63;;
73102;SDS011;61294;65.988;29.172;2022-08-19T06:46:31;11.40;;;9.32;;
73102;SDS011;61294;65.988;29.172;2022-08-19T06:48:56;12.73;;;9.32;;
73102;SDS011;61294;65.988;29.172;2022-08-19T06:51:23;10.55;;;9.55;;
73102;SDS011;61294;65.988;29.172;2022-08-19T06:53:50;11.57;;;10.05;;
73102;SDS011;61294;65.988;29.172;2022-08-19T06:56:19;13.63;;;9.43;;
73102;SDS011;61294;65.988;29.172;2022-08-19T06:58:47;11.30;;;10.00;;
73102;SDS011;61294;65.988;29.172;2022-08-19T07:01:16;11.55;;;10.45;;
73102;SDS011;61294;65.988;29.172;2022-08-19T07:03:42;12.23;;;11.02;;
73102;SDS011;61294;65.988;29.172;2022-08-19T07:06:09;13.52;;;12.13;;
73102;SDS011;61294;65.988;29.172;2022-08-19T07:08:37;10.95;;;9.95;;
73102;SDS011;61294;65.988;29.172;2022-08-19T07:11:07;12.48;;;10.75;;
73102;SDS011;61294;65.988;29.172;2022-08-19T07:13:35;12.57;;;11.35;;
73102;SDS011;61294;65.988;29.172;2022-08-19T07:18:35;12.13;;;10.68;;
73102;SDS011;61294;65.988;29.172;2022-08-19T07:21:05;14.75;;;10.68;;
73102;SDS011;61294;65.988;29.172;2022-08-19T07:23:39;13.30;;;10.38;;
73102;SDS011;61294;65.988;29.172;2022-08-19T07:26:09;15.93;;;9.65;;
73102;SDS011;61294;65.988;29.172;2022-08-19T07:28:38;13.60;;;10.27;;
73102;SDS011;61294;65.988;29.172;2022-08-19T07:31:07;11.95;;;9.90;;
73102;SDS011;61294;65.988;29.172;2022-08-19T07:33:34;13.10;;;9.25;;
73102;SDS011;61294;65.988;29.172;2022-08-19T07:36:05;11.05;;;9.90;;
73102;SDS011;61294;65.988;29.172;2022-08-19T07:38:32;10.73;;;9.63;;
73102;SDS011;61294;65.988;29.172;2022-08-19T07:41:00;11.48;;;9.30;;
73102;SDS011;61294;65.988;29.172;2022-08-19T07:43:26;11.45;;;8.90;;
73102;SDS011;61294;65.988;29.172;2022-08-19T07:45:53;10.30;;;8.93;;
73102;SDS011;61294;65.988;29.172;2022-08-19T07:48:25;10.45;;;9.38;;
73102;SDS011;61294;65.988;29.172;2022-08-19T07:50:53;10.85;;;9.60;;
73102;SDS011;61294;65.988;29.172;2022-08-19T07:53:23;10.82;;;8.98;;
73102;SDS011;61294;65.988;29.172;2022-08-19T07:55:49;11.57;;;9.02;;
73102;SDS011;61294;65.988;29.172;2022-08-19T07:58:17;13.18;;;8.63;;
73102;SDS011;61294;65.988;29.172;2022-08-19T08:00:45;10.88;;;9.25;;
73102;SDS011;61294;65.988;29.172;2022-08-19T08:03:13;12.48;;;8.68;;
73102;SDS011;61294;65.988;29.172;2022-08-19T08:05:40;10.88;;;9.23;;
73102;SDS011;61294;65.988;29.172;2022-08-19T08:08:25;10.75;;;8.90;;
73102;SDS011;61294;65.988;29.172;2022-08-19T08:11:09;13.27;;;8.98;;
73102;SDS011;61294;65.988;29.172;2022-08-19T08:13:36;13.80;;;9.13;;
73102;SDS011;61294;65.988;29.172;2022-08-19T08:16:02;9.32;;;8.45;;
73102;SDS011;61294;65.988;29.172;2022-08-19T08:18:28;12.10;;;8.98;;
73102;SDS011;61294;65.988;29.172;2022-08-19T08:20:54;9.20;;;8.30;;
73102;SDS011;61294;65.988;29.172;2022-08-19T08:23:20;11.02;;;9.27;;
73102;SDS011;61294;65.988;29.172;2022-08-19T08:25:55;10.35;;;8.70;;
73102;SDS011;61294;65.988;29.172;2022-08-19T08:28:23;10.63;;;8.95;;
73102;SDS011;61294;65.988;29.172;2022-08-19T08:30:50;9.70;;;8.70;;
73102;SDS011;61294;65.988;29.172;2022-08-19T08:33:18;10.80;;;9.10;;
73102;SDS011;61294;65.988;29.172;2022-08-19T08:35:46;10.13;;;9.13;;
73102;SDS011;61294;65.988;29.172;2022-08-19T08:38:13;9.80;;;8.63;;
73102;SDS011;61294;65.988;29.172;2022-08-19T08:40:44;9.98;;;8.98;;
73102;SDS011;61294;65.988;29.172;2022-08-19T08:43:29;13.13;;;9.23;;
73102;SDS011;61294;65.988;29.172;2022-08-19T08:46:06;9.45;;;8.52;;
73102;SDS011;61294;65.988;29.172;2022-08-19T08:48:44;12.52;;;9.18;;
73102;SDS011;61294;65.988;29.172;2022-08-19T08:51:57;12.57;;;10.10;;
73102;SDS011;61294;65.988;29.172;2022-08-19T08:54:13;11.25;;;8.57;;
73102;SDS011;61294;65.988;29.172;2022-08-19T08:56:43;11.13;;;9.18;;
73102;SDS011;61294;65.988;29.172;2022-08-19T08:59:12;12.15;;;9.10;;
73102;SDS011;61294;65.988;29.172;2022-08-19T09:01:45;10.95;;;9.45;;
73102;SDS011;61294;65.988;29.172;2022-08-19T09:04:11;9.85;;;8.27;;
73102;SDS011;61294;65.988;29.172;2022-08-19T09:09:05;9.10;;;8.30;;
73102;SDS011;61294;65.988;29.172;2022-08-19T09:11:58;9.85;;;8.55;;
73102;SDS011;61294;65.988;29.172;2022-08-19T09:14:54;9.45;;;8.55;;
73102;SDS011;61294;65.988;29.172;2022-08-19T09:17:26;11.15;;;8.75;;
73102;SDS011;61294;65.988;29.172;2022-08-19T09:22:43;10.85;;;9.02;;
73102;SDS011;61294;65.988;29.172;2022-08-19T09:25:16;10.57;;;8.68;;
73102;SDS011;61294;65.988;29.172;2022-08-19T09:27:45;15.20;;;9.00;;
73102;SDS011;61294;65.988;29.172;2022-08-19T09:30:16;14.00;;;9.77;;
73102;SDS011;61294;65.988;29.172;2022-08-19T09:32:47;13.75;;;9.63;;
73102;SDS011;61294;65.988;29.172;2022-08-19T09:35:14;12.88;;;9.38;;
73102;SDS011;61294;65.988;29.172;2022-08-19T09:37:40;12.15;;;9.98;;
73102;SDS011;61294;65.988;29.172;2022-08-19T09:40:08;15.25;;;9.50;;
73102;SDS011;61294;65.988;29.172;2022-08-19T09:42:35;12.65;;;9.48;;
73102;SDS011;61294;65.988;29.172;2022-08-19T09:45:01;12.90;;;9.93;;
73102;SDS011;61294;65.988;29.172;2022-08-19T09:47:27;9.50;;;8.63;;
73102;SDS011;61294;65.988;29.172;2022-08-19T09:49:53;11.13;;;8.65;;
73102;SDS011;61294;65.988;29.172;2022-08-19T09:52:20;10.25;;;8.75;;
73102;SDS011;61294;65.988;29.172;2022-08-19T09:54:45;10.18;;;9.18;;
73102;SDS011;61294;65.988;29.172;2022-08-19T09:57:11;10.73;;;9.63;;
73102;SDS011;61294;65.988;29.172;2022-08-19T09:59:38;10.20;;;8.98;;
73102;SDS011;61294;65.988;29.172;2022-08-19T10:02:04;11.98;;;8.65;;
73102;SDS011;61294;65.988;29.172;2022-08-19T10:04:30;15.07;;;9.40;;
73102;SDS011;61294;65.988;29.172;2022-08-19T10:07:14;8.63;;;7.72;;
73102;SDS011;61294;65.988;29.172;2022-08-19T10:09:40;9.10;;;8.20;;
73102;SDS011;61294;65.988;29.172;2022-08-19T10:12:06;10.38;;;8.35;;
73102;SDS011;61294;65.988;29.172;2022-08-19T10:14:33;13.45;;;10.95;;
73102;SDS011;61294;65.988;29.172;2022-08-19T10:16:59;14.63;;;8.77;;
73102;SDS011;61294;65.988;29.172;2022-08-19T10:19:27;11.65;;;8.43;;
73102;SDS011;61294;65.988;29.172;2022-08-19T10:21:55;9.50;;;8.02;;
73102;SDS011;61294;65.988;29.172;2022-08-19T10:24:21;13.55;;;8.32;;
73102;SDS011;61294;65.988;29.172;2022-08-19T10:26:49;8.25;;;7.45;;
73102;SDS011;61294;65.988;29.172;2022-08-19T10:29:14;12.45;;;8.00;;
73102;SDS011;61294;65.988;29.172;2022-08-19T10:31:41;8.88;;;6.38;;
73102;SDS011;61294;65.988;29.172;2022-08-19T10:34:07;10.63;;;7.30;;
73102;SDS011;61294;65.988;29.172;2022-08-19T10:36:34;12.57;;;8.18;;
73102;SDS011;61294;65.988;29.172;2022-08-19T10:39:09;16.55;;;8.10;;
73102;SDS011;61294;65.988;29.172;2022-08-19T10:41:37;14.02;;;8.00;;
73102;SDS011;61294;65.988;29.172;2022-08-19T10:44:05;9.23;;;8.10;;
73102;SDS011;61294;65.988;29.172;2022-08-19T10:46:33;8.63;;;7.32;;
73102;SDS011;61294;65.988;29.172;2022-08-19T10:49:02;13.10;;;7.43;;
73102;SDS011;61294;65.988;29.172;2022-08-19T10:51:29;8.77;;;7.90;;
73102;SDS011;61294;65.988;29.172;2022-08-19T10:54:15;9.10;;;7.75;;
73102;SDS011;61294;65.988;29.172;2022-08-19T10:56:42;14.65;;;7.65;;
73102;SDS011;61294;65.988;29.172;2022-08-19T10:59:18;10.38;;;7.53;;
73102;SDS011;61294;65.988;29.172;2022-08-19T11:01:46;8.02;;;6.45;;
73102;SDS011;61294;65.988;29.172;2022-08-19T11:04:12;13.13;;;7.30;;
73102;SDS011;61294;65.988;29.172;2022-08-19T11:06:40;9.02;;;7.43;;
73102;SDS011;61294;65.988;29.172;2022-08-19T11:09:08;11.50;;;6.57;;
73102;SDS011;61294;65.988;29.172;2022-08-19T11:11:35;10.98;;;6.78;;
73102;SDS011;61294;65.988;29.172;2022-08-19T11:14:05;8.43;;;6.20;;
73102;SDS011;61294;65.988;29.172;2022-08-19T11:16:32;13.70;;;7.13;;
73102;SDS011;61294;65.988;29.172;2022-08-19T11:18:58;6.82;;;6.05;;
73102;SDS011;61294;65.988;29.172;2022-08-19T11:21:29;7.78;;;7.00;;
73102;SDS011;61294;65.988;29.172;2022-08-19T11:23:57;10.07;;;6.93;;
73102;SDS011;61294;65.988;29.172;2022-08-19T11:26:26;8.07;;;7.07;;
73102;SDS011;61294;65.988;29.172;2022-08-19T11:28:52;10.48;;;7.07;;
73102;SDS011;61294;65.988;29.172;2022-08-19T11:31:20;9.95;;;6.60;;
73102;SDS011;61294;65.988;29.172;2022-08-19T11:33:48;10.45;;;7.35;;
73102;SDS011;61294;65.988;29.172;2022-08-19T11:36:17;10.25;;;7.25;;
73102;SDS011;61294;65.988;29.172;2022-08-19T11:38:45;8.60;;;7.10;;
73102;SDS011;61294;65.988;29.172;2022-08-19T11:41:14;14.85;;;8.00;;
73102;SDS011;61294;65.988;29.172;2022-08-19T11:43:41;12.93;;;7.05;;
73102;SDS011;61294;65.988;29.172;2022-08-19T11:46:07;15.18;;;8.30;;
73102;SDS011;61294;65.988;29.172;2022-08-19T11:48:35;10.85;;;8.43;;
73102;SDS011;61294;65.988;29.172;2022-08-19T11:51:13;15.18;;;8.25;;
73102;SDS011;61294;65.988;29.172;2022-08-19T11:53:41;9.05;;;7.95;;
73102;SDS011;61294;65.988;29.172;2022-08-19T11:56:07;10.60;;;8.40;;
73102;SDS011;61294;65.988;29.172;2022-08-19T11:58:34;9.52;;;8.52;;
73102;SDS011;61294;65.988;29.172;2022-08-19T12:01:00;13.95;;;8.55;;
73102;SDS011;61294;65.988;29.172;2022-08-19T12:03:29;10.73;;;8.65;;
73102;SDS011;61294;65.988;29.172;2022-08-19T12:05:55;10.18;;;9.00;;
73102;SDS011;61294;65.988;29.172;2022-08-19T12:08:21;11.82;;;8.45;;
73102;SDS011;61294;65.988;29.172;2022-08-19T12:10:47;12.65;;;8.25;;
73102;SDS011;61294;65.988;29.172;2022-08-19T12:13:13;9.50;;;7.63;;
73102;SDS011;61294;65.988;29.172;2022-08-19T12:15:43;11.45;;;7.35;;
73102;SDS011;61294;65.988;29.172;2022-08-19T12:18:10;10.02;;;9.02;;
73102;SDS011;61294;65.988;29.172;2022-08-19T12:20:39;11.75;;;9.50;;
73102;SDS011;61294;65.988;29.172;2022-08-19T12:23:08;10.88;;;8.57;;
73102;SDS011;61294;65.988;29.172;2022-08-19T12:25:43;11.25;;;8.90;;
73102;SDS011;61294;65.988;29.172;2022-08-19T12:28:17;10.90;;;8.45;;
73102;SDS011;61294;65.988;29.172;2022-08-19T12:30:44;12.75;;;9.13;;
73102;SDS011;61294;65.988;29.172;2022-08-19T12:33:10;15.20;;;10.52;;
73102;SDS011;61294;65.988;29.172;2022-08-19T12:35:39;11.50;;;9.00;;
73102;SDS011;61294;65.988;29.172;2022-08-19T12:38:07;10.30;;;8.27;;
73102;SDS011;61294;65.988;29.172;2022-08-19T12:40:33;14.98;;;9.23;;
73102;SDS011;61294;65.988;29.172;2022-08-19T12:42:59;10.43;;;9.32;;
73102;SDS011;61294;65.988;29.172;2022-08-19T12:45:25;9.95;;;8.57;;
73102;SDS011;61294;65.988;29.172;2022-08-19T12:47:50;13.43;;;9.23;;
73102;SDS011;61294;65.988;29.172;2022-08-19T12:50:18;13.05;;;8.13;;
73102;SDS011;61294;65.988;29.172;2022-08-19T12:52:46;9.63;;;8.50;;
73102;SDS011;61294;65.988;29.172;2022-08-19T12:55:13;16.00;;;9.38;;
73102;SDS011;61294;65.988;29.172;2022-08-19T12:57:38;9.75;;;8.85;;
73102;SDS011;61294;65.988;29.172;2022-08-19T13:00:10;9.43;;;8.38;;
73102;SDS011;61294;65.988;29.172;2022-08-19T13:02:39;10.18;;;8.68;;
73102;SDS011;61294;65.988;29.172;2022-08-19T13:05:09;9.75;;;8.85;;
73102;SDS011;61294;65.988;29.172;2022-08-19T13:07:37;17.65;;;9.70;;
73102;SDS011;61294;65.988;29.172;2022-08-19T13:10:07;9.80;;;8.80;;
73102;SDS011;61294;65.988;29.172;2022-08-19T13:12:34;10.68;;;8.80;;
73102;SDS011;61294;65.988;29.172;2022-08-19T13:15:00;14.00;;;10.32;;
73102;SDS011;61294;65.988;29.172;2022-08-19T13:17:26;10.85;;;9.05;;
73102;SDS011;61294;65.988;29.172;2022-08-19T13:19:52;10.00;;;8.85;;
73102;SDS011;61294;65.988;29.172;2022-08-19T13:22:18;9.77;;;8.77;;
73102;SDS011;61294;65.988;29.172;2022-08-19T13:24:43;10.73;;;9.25;;
73102;SDS011;61294;65.988;29.172;2022-08-19T13:27:10;13.38;;;9.65;;
73102;SDS011;61294;65.988;29.172;2022-08-19T13:29:35;12.18;;;8.93;;
73102;SDS011;61294;65.988;29.172;2022-08-19T13:32:19;10.40;;;9.20;;
73102;SDS011;61294;65.988;29.172;2022-08-19T13:35:04;10.77;;;9.68;;
73102;SDS011;61294;65.988;29.172;2022-08-19T13:37:30;10.60;;;9.23;;
73102;SDS011;61294;65.988;29.172;2022-08-19T13:40:13;15.30;;;13.48;;
73102;SDS011;61294;65.988;29.172;2022-08-19T13:42:41;10.88;;;9.40;;
73102;SDS011;61294;65.988;29.172;2022-08-19T13:45:09;12.88;;;9.82;;
73102;SDS011;61294;65.988;29.172;2022-08-19T13:47:36;14.07;;;9.45;;
73102;SDS011;61294;65.988;29.172;2022-08-19T13:50:08;16.30;;;9.35;;
73102;SDS011;61294;65.988;29.172;2022-08-19T13:52:36;11.88;;;8.38;;
73102;SDS011;61294;65.988;29.172;2022-08-19T13:55:02;10.20;;;8.63;;
73102;SDS011;61294;65.988;29.172;2022-08-19T13:57:29;10.50;;;9.40;;
73102;SDS011;61294;65.988;29.172;2022-08-19T13:59:57;8.50;;;7.72;;
73102;SDS011;61294;65.988;29.172;2022-08-19T14:02:23;13.10;;;8.75;;
73102;SDS011;61294;65.988;29.172;2022-08-19T14:04:51;9.90;;;8.20;;
73102;SDS011;61294;65.988;29.172;2022-08-19T14:07:17;9.43;;;8.45;;
73102;SDS011;61294;65.988;29.172;2022-08-19T14:09:43;9.32;;;7.47;;
73102;SDS011;61294;65.988;29.172;2022-08-19T14:12:09;8.50;;;7.70;;
73102;SDS011;61294;65.988;29.172;2022-08-19T14:14:38;11.77;;;8.57;;
73102;SDS011;61294;65.988;29.172;2022-08-19T14:17:08;12.68;;;8.18;;
73102;SDS011;61294;65.988;29.172;2022-08-19T14:19:34;11.20;;;8.10;;
73102;SDS011;61294;65.988;29.172;2022-08-19T14:22:02;11.73;;;7.82;;
73102;SDS011;61294;65.988;29.172;2022-08-19T14:24:28;12.77;;;8.38;;
73102;SDS011;61294;65.988;29.172;2022-08-19T14:26:55;12.13;;;8.77;;
73102;SDS011;61294;65.988;29.172;2022-08-19T14:29:24;10.00;;;7.35;;
73102;SDS011;61294;65.988;29.172;2022-08-19T14:31:51;12.32;;;7.63;;
73102;SDS011;61294;65.988;29.172;2022-08-19T14:34:17;13.45;;;8.30;;
73102;SDS011;61294;65.988;29.172;2022-08-19T14:36:43;12.15;;;8.32;;
73102;SDS011;61294;65.988;29.172;2022-08-19T14:39:10;9.90;;;7.88;;
73102;SDS011;61294;65.988;29.172;2022-08-19T14:41:36;11.98;;;9.18;;
73102;SDS011;61294;65.988;29.172;2022-08-19T14:44:07;17.02;;;6.60;;
73102;SDS011;61294;65.988;29.172;2022-08-19T14:46:37;9.55;;;6.43;;